Time;durP1;ratioP1;P1;durP2;ratioP2;P2;SDS_P1;SDS_P2;PMS_P1;PMS_P2;Temp;Humidity;BMP_temperature;BMP_pressure;BME280_temperature;BME280_humidity;BME280_pressure;Samples;Min_cycle;Max_cycle;Signal;HPM_P1;HPM_P2
2022/03/17 00:01:39;;;;;;;;;;;;;;;21.99;26.57;96224.66;10381828;28;2132;-43
2022/03/17 00:06:41;;;;;;;;;;;;;;;21.99;26.53;96217.53;10400584;28;1914;-46
2022/03/17 00:11:42;;;;;;;;;;;;;;;21.99;26.36;96214.88;10403986;28;1798;-44
2022/03/17 00:16:42;;;;;;;;;;;;;;;21.98;26.57;96218.59;10396605;28;1716;-42
2022/03/17 00:21:43;;;;;;;;;;;;;;;21.99;26.32;96217.53;10387106;28;1784;-40
2022/03/17 00:26:44;;;;;;;;;;;;;;;21.98;26.26;96213.31;10401382;28;1929;-44
2022/03/17 00:31:44;;;;;;;;;;;;;;;21.98;26.41;96217.78;10383480;28;1867;-43
2022/03/17 00:36:47;;;;;;;;;;;;;;;21.97;26.20;96209.09;10399989;28;1783;-47
2022/03/17 00:41:48;;;;;;;;;;;;;;;21.97;26.15;96206.44;10400361;28;1807;-45
2022/03/17 00:46:48;;;;;;;;;;;;;;;21.97;26.21;96206.44;10377193;28;1914;-43
2022/03/17 00:51:50;;;;;;;;;;;;;;;21.97;26.01;96205.69;10383289;28;1874;-47
2022/03/17 00:56:51;;;;;;;;;;;;;;;21.97;26.06;96206.44;10395502;28;1827;-43
2022/03/17 01:01:51;;;;;;;;;;;;;;;21.97;26.06;96203.81;10380088;28;1919;-42
2022/03/17 01:06:51;;;;;;;;;;;;;;;21.97;26.19;96208.31;10380948;28;1914;-43
2022/03/17 01:11:52;;;;;;;;;;;;;;;21.97;26.01;96211.72;10400294;28;1834;-42
2022/03/17 01:16:52;;;;;;;;;;;;;;;21.96;25.95;96198.81;10384014;28;1815;-47
2022/03/17 01:21:52;;;;;;;;;;;;;;;21.97;25.82;96192.47;10398823;28;1772;-41
2022/03/17 01:26:53;;;;;;;;;;;;;;;21.94;25.81;96177.97;10399513;28;1903;-43
2022/03/17 01:31:54;;;;;;;;;;;;;;;21.96;25.99;96178.47;10398191;28;1855;-42
2022/03/17 01:36:54;;;;;;;;;;;;;;;21.95;25.97;96173.47;10375422;28;1665;-44
2022/03/17 01:41:59;;;;;;;;;;;;;;;21.96;25.96;96172.41;10388629;28;2016;-44
2022/03/17 01:52:18;;;;;;;;;;;;;;;21.95;25.96;96176.13;10383801;28;1922;-43
2022/03/17 01:57:20;;;;;;;;;;;;;;;21.94;26.06;96170.03;10379470;28;2000;-47
2022/03/17 02:02:20;;;;;;;;;;;;;;;21.95;26.13;96160.28;10398173;28;2347;-47
2022/03/17 02:07:21;;;;;;;;;;;;;;;21.94;26.10;96159.50;10391861;28;1981;-45
2022/03/17 02:18:02;;;;;;;;;;;;;;;21.93;25.87;96146.56;10314712;28;2377;-44
2022/03/17 02:28:25;;;;;;;;;;;;;;;21.91;25.81;96144.19;10389701;28;2495;-46
2022/03/17 02:33:25;;;;;;;;;;;;;;;21.90;25.70;96145.25;10375312;28;1850;-48
2022/03/17 02:38:26;;;;;;;;;;;;;;;21.91;25.84;96130.22;10379499;28;1951;-41
2022/03/17 02:43:26;;;;;;;;;;;;;;;21.91;26.03;96154.75;10379602;28;2025;-42
2022/03/17 02:48:26;;;;;;;;;;;;;;;21.90;25.81;96152.38;10373958;28;2007;-42
2022/03/17 02:53:27;;;;;;;;;;;;;;;21.91;25.75;96148.69;10380242;28;1832;-43
2022/03/17 02:58:27;;;;;;;;;;;;;;;21.90;25.87;96158.47;10393718;28;1816;-44
2022/03/17 03:03:28;;;;;;;;;;;;;;;21.89;25.77;96159.50;10438294;23;2065;-58
2022/03/17 03:08:29;;;;;;;;;;;;;;;21.90;25.70;96169.00;10473519;28;1905;-57
2022/03/17 03:13:37;;;;;;;;;;;;;;;21.89;25.75;96170.06;10476486;28;1793;-59
2022/03/17 03:18:38;;;;;;;;;;;;;;;21.89;25.90;96156.88;10476064;28;1797;-59
2022/03/17 03:23:39;;;;;;;;;;;;;;;21.90;25.87;96169.00;10479978;28;1981;-59
2022/03/17 03:28:41;;;;;;;;;;;;;;;21.89;25.85;96162.13;10472471;28;1785;-59
2022/03/17 03:33:42;;;;;;;;;;;;;;;21.88;25.42;96171.13;10476379;28;1860;-59
2022/03/17 03:38:42;;;;;;;;;;;;;;;21.88;25.69;96185.09;10477117;28;1772;-60
2022/03/17 03:43:43;;;;;;;;;;;;;;;21.88;25.70;96182.47;10483457;28;1914;-60
2022/03/17 03:48:44;;;;;;;;;;;;;;;21.89;25.61;96183.25;10479470;28;2132;-59
2022/03/17 03:59:21;;;;;;;;;;;;;;;21.89;25.57;96183.25;10459321;28;1946;-60
2022/03/17 04:04:22;;;;;;;;;;;;;;;21.88;25.37;96169.25;10481694;28;2001;-60
2022/03/17 04:09:25;;;;;;;;;;;;;;;21.88;25.76;96181.69;10507618;28;1828;-59
2022/03/17 04:14:26;;;;;;;;;;;;;;;21.88;25.48;96179.81;10485389;28;1809;-59
2022/03/17 04:19:26;;;;;;;;;;;;;;;21.88;25.68;96171.13;10479515;28;1673;-58
2022/03/17 04:24:27;;;;;;;;;;;;;;;21.89;25.60;96183.25;10481666;28;1898;-60
2022/03/17 04:29:28;;;;;;;;;;;;;;;21.87;25.47;96185.38;10481514;28;1826;-60
2022/03/17 04:34:28;;;;;;;;;;;;;;;21.86;25.41;96183.81;10476443;28;1780;-59
2022/03/17 04:39:29;;;;;;;;;;;;;;;21.88;25.55;96200.16;10480583;28;1820;-59
2022/03/17 04:44:30;;;;;;;;;;;;;;;21.87;25.65;96201.22;10481823;28;1975;-60
2022/03/17 04:49:30;;;;;;;;;;;;;;;21.87;25.33;96203.84;10474668;28;1911;-60
2022/03/17 04:54:31;;;;;;;;;;;;;;;21.88;25.58;96199.38;10470824;28;1887;-60
2022/03/17 04:59:31;;;;;;;;;;;;;;;21.88;25.42;96202.00;10475914;28;1769;-60
2022/03/17 05:04:32;;;;;;;;;;;;;;;21.88;25.53;96197.53;10467402;28;2269;-60
2022/03/17 05:09:32;;;;;;;;;;;;;;;21.86;25.35;96200.41;10472468;28;2007;-60
2022/03/17 05:14:33;;;;;;;;;;;;;;;21.85;25.31;96204.13;10467382;28;1880;-60
2022/03/17 05:19:34;;;;;;;;;;;;;;;21.86;25.42;96213.59;10466980;28;1989;-60
2022/03/17 05:24:34;;;;;;;;;;;;;;;21.86;25.23;96226.03;10461324;28;1980;-62
2022/03/17 05:29:35;;;;;;;;;;;;;;;21.86;25.36;96237.38;10462335;28;2223;-61
2022/03/17 05:34:35;;;;;;;;;;;;;;;21.87;25.55;96251.34;10493749;28;1957;-60
2022/03/17 05:39:35;;;;;;;;;;;;;;;21.86;25.54;96255.06;10491494;28;1931;-59
2022/03/17 05:44:36;;;;;;;;;;;;;;;21.86;25.18;96252.44;10490793;28;1983;-59
2022/03/17 05:49:36;;;;;;;;;;;;;;;21.86;25.06;96263.75;10462897;28;1970;-60
2022/03/17 05:54:37;;;;;;;;;;;;;;;21.86;25.10;96255.84;10461906;28;2094;-57
2022/03/17 05:59:39;;;;;;;;;;;;;;;21.86;25.21;96268.25;10476267;28;1987;-59
2022/03/17 06:04:40;;;;;;;;;;;;;;;21.86;25.16;96263.00;10473939;28;1914;-60
2022/03/17 06:09:41;;;;;;;;;;;;;;;21.86;25.17;96282.22;10475304;28;1950;-58
2022/03/17 06:14:42;;;;;;;;;;;;;;;21.87;24.95;96285.66;10460744;28;1810;-60
2022/03/17 06:19:42;;;;;;;;;;;;;;;21.87;25.16;96285.66;10472781;28;1824;-60
2022/03/17 06:24:43;;;;;;;;;;;;;;;21.99;25.12;96286.16;10471941;28;1992;-60
2022/03/17 06:29:43;;;;;;;;;;;;;;;21.92;25.48;96290.94;10472703;28;1947;-61
2022/03/17 06:34:43;;;;;;;;;;;;;;;21.91;25.39;96302.53;10467396;28;1908;-61
2022/03/17 06:39:44;;;;;;;;;;;;;;;21.91;25.53;96293.84;10474899;28;1820;-61
2022/03/17 06:44:44;;;;;;;;;;;;;;;21.89;25.36;96288.81;10475153;28;1990;-62
2022/03/17 06:49:44;;;;;;;;;;;;;;;21.88;25.35;96298.59;10479034;28;1781;-61
2022/03/17 06:54:46;;;;;;;;;;;;;;;21.87;24.97;96304.13;10471450;28;1814;-60
2022/03/17 06:59:46;;;;;;;;;;;;;;;21.88;25.32;96313.66;10477489;28;1844;-60
2022/03/17 07:04:47;;;;;;;;;;;;;;;21.87;25.31;96301.50;10474558;28;1967;-60
2022/03/17 07:09:47;;;;;;;;;;;;;;;21.90;25.43;96310.75;10474566;28;1932;-61
2022/03/17 07:14:47;;;;;;;;;;;;;;;21.88;25.48;96316.28;10472994;28;1800;-62
2022/03/17 07:24:57;;;;;;;;;;;;;;;21.93;26.35;96339.25;10482766;28;1976;-61
2022/03/17 07:29:57;;;;;;;;;;;;;;;21.91;25.35;96344.00;10483922;28;1946;-61
2022/03/17 07:34:57;;;;;;;;;;;;;;;21.90;25.76;96337.94;10477656;28;1824;-61
2022/03/17 07:39:58;;;;;;;;;;;;;;;21.91;26.05;96344.78;10510325;28;1779;-61
2022/03/17 07:44:58;;;;;;;;;;;;;;;21.92;26.07;96349.00;10476732;28;1911;-62
2022/03/17 07:50:04;;;;;;;;;;;;;;;21.92;26.24;96346.38;10480833;28;1876;-61
2022/03/17 07:55:05;;;;;;;;;;;;;;;21.94;26.02;96349.53;10474185;28;2313;-61
2022/03/17 08:00:07;;;;;;;;;;;;;;;21.94;25.82;96356.66;10475555;28;2168;-62
2022/03/17 08:05:08;;;;;;;;;;;;;;;21.93;25.81;96363.78;10496434;28;2091;-62
2022/03/17 08:10:09;;;;;;;;;;;;;;;21.96;26.03;96367.75;10481959;28;1907;-60
2022/03/17 08:15:10;;;;;;;;;;;;;;;21.94;25.75;96369.84;10477495;28;1920;-60
2022/03/17 08:20:10;;;;;;;;;;;;;;;21.95;26.25;96376.72;10475479;28;1853;-60
2022/03/17 08:25:11;;;;;;;;;;;;;;;21.96;25.95;96381.72;10482441;28;1999;-60
2022/03/17 08:30:12;;;;;;;;;;;;;;;21.95;25.83;96380.13;10482370;28;1761;-59
2022/03/17 08:35:14;;;;;;;;;;;;;;;21.95;25.79;96380.13;10478908;28;1804;-57
2022/03/17 08:40:15;;;;;;;;;;;;;;;22.00;26.01;96384.63;10482494;28;1832;-60
2022/03/17 08:50:37;;;;;;;;;;;;;;;21.97;25.79;96409.69;10479143;28;1860;-60
2022/03/17 08:55:37;;;;;;;;;;;;;;;21.99;25.77;96412.88;10479964;28;1809;-62
2022/03/17 09:00:37;;;;;;;;;;;;;;;21.99;25.65;96422.66;10479192;28;1722;-61
2022/03/17 09:05:39;;;;;;;;;;;;;;;21.98;25.66;96421.06;10460065;22;2117;-69
2022/03/17 09:10:39;;;;;;;;;;;;;;;21.98;25.81;96421.06;10425574;28;1864;-70
2022/03/17 09:15:40;;;;;;;;;;;;;;;21.97;26.35;96411.56;10396977;28;1804;-67
2022/03/17 09:20:41;;;;;;;;;;;;;;;21.97;26.61;96417.63;10442070;28;2111;-68
2022/03/17 09:25:41;;;;;;;;;;;;;;;21.94;26.32;96425.28;10431802;28;1980;-68
2022/03/17 09:30:41;;;;;;;;;;;;;;;21.94;26.00;96430.56;10441669;28;1768;-68
2022/03/17 09:35:42;;;;;;;;;;;;;;;21.92;25.80;96430.03;10424067;28;1896;-69
2022/03/17 09:40:43;;;;;;;;;;;;;;;21.92;26.52;96428.19;10437390;28;1779;-68
2022/03/17 09:45:54;;;;;;;;;;;;;;;21.92;26.14;96425.56;10443934;28;2007;-68
2022/03/17 09:50:58;;;;;;;;;;;;;;;21.92;25.96;96430.84;10420762;28;1894;-68
2022/03/17 09:55:59;;;;;;;;;;;;;;;21.95;26.79;96438.22;10402797;28;1916;-68
2022/03/17 10:01:01;;;;;;;;;;;;;;;21.95;26.15;96445.38;10431171;28;1843;-69
2022/03/17 10:06:05;;;;;;;;;;;;;;;21.97;26.35;96453.81;10417610;28;1914;-69
2022/03/17 10:11:06;;;;;;;;;;;;;;;21.97;25.89;96451.16;10401107;28;1931;-68
2022/03/17 10:16:07;;;;;;;;;;;;;;;21.97;26.91;96465.13;10420544;28;2087;-68
2022/03/17 10:21:08;;;;;;;;;;;;;;;21.96;26.50;96458.28;10443680;28;1688;-68
2022/03/17 10:26:08;;;;;;;;;;;;;;;22.05;27.13;96448.75;10424810;28;1910;-69
2022/03/17 10:31:11;;;;;;;;;;;;;;;22.03;26.89;96458.78;10431686;28;1814;-69
2022/03/17 10:36:13;;;;;;;;;;;;;;;22.03;26.83;96453.50;10426787;28;1914;-69
2022/03/17 10:41:13;;;;;;;;;;;;;;;22.00;26.84;96450.63;10414223;28;1847;-68
2022/03/17 10:46:20;;;;;;;;;;;;;;;21.98;26.48;96458.81;10428679;28;1977;-70
2022/03/17 10:51:31;;;;;;;;;;;;;;;21.97;26.37;96462.50;10428729;28;1832;-68
2022/03/17 10:56:31;;;;;;;;;;;;;;;21.98;26.58;96463.28;10443077;28;2073;-68
2022/03/17 11:01:42;;;;;;;;;;;;;;;21.98;26.68;96465.94;10408613;28;1798;-68
2022/03/17 11:06:44;;;;;;;;;;;;;;;21.98;27.05;96466.72;10426162;28;2028;-68
2022/03/17 11:11:44;;;;;;;;;;;;;;;22.02;26.87;96472.25;10445453;28;1838;-68
2022/03/17 11:16:47;;;;;;;;;;;;;;;22.02;26.74;96474.91;10426587;28;1922;-69
2022/03/17 11:21:50;;;;;;;;;;;;;;;21.98;26.44;96466.72;10447053;28;2117;-67
2022/03/17 11:26:51;;;;;;;;;;;;;;;21.97;26.30;96470.41;10459449;28;1979;-68
2022/03/17 11:31:53;;;;;;;;;;;;;;;21.99;26.54;96465.66;10442234;28;1997;-68
2022/03/17 11:37:13;;;;;;;;;;;;;;;21.98;26.30;96468.56;10409232;28;2312;-68
2022/03/17 11:42:33;;;;;;;;;;;;;;;21.96;26.22;96466.22;10447409;28;1860;-68
2022/03/17 11:47:36;;;;;;;;;;;;;;;21.91;25.85;96460.91;10431981;28;1922;-69
2022/03/17 11:52:36;;;;;;;;;;;;;;;21.94;26.38;96470.97;10414075;28;1830;-68
2022/03/17 11:57:37;;;;;;;;;;;;;;;21.94;26.72;96467.53;10412144;28;1961;-69
2022/03/17 12:02:37;;;;;;;;;;;;;;;22.04;27.30;96470.16;10431500;28;1896;-69
2022/03/17 12:07:47;;;;;;;;;;;;;;;21.96;26.88;96463.56;10435197;28;2192;-68
2022/03/17 12:12:48;;;;;;;;;;;;;;;22.04;27.30;96470.94;10439310;28;1951;-68
2022/03/17 12:18:09;;;;;;;;;;;;;;;22.06;27.49;96466.19;10445319;28;1726;-68
2022/03/17 12:23:28;;;;;;;;;;;;;;;22.07;27.38;96467.00;10433452;28;1918;-68
2022/03/17 12:28:30;;;;;;;;;;;;;;;22.03;27.14;96463.31;10448300;28;1871;-68
2022/03/17 12:33:30;;;;;;;;;;;;;;;22.01;26.18;96466.19;10449145;28;1814;-68
2022/03/17 12:38:32;;;;;;;;;;;;;;;21.98;26.71;96461.44;10434701;28;1834;-68
2022/03/17 12:43:35;;;;;;;;;;;;;;;21.98;26.72;96469.38;10434057;28;1902;-68
2022/03/17 12:48:37;;;;;;;;;;;;;;;21.99;26.40;96460.38;10446755;28;1989;-67
2022/03/17 12:53:39;;;;;;;;;;;;;;;21.97;26.38;96459.09;10455037;28;1878;-69
2022/03/17 12:58:39;;;;;;;;;;;;;;;21.99;27.06;96457.75;10423434;28;1770;-70
2022/03/17 13:03:40;;;;;;;;;;;;;;;21.97;26.84;96454.56;10421391;28;1962;-69
2022/03/17 13:08:40;;;;;;;;;;;;;;;21.97;26.16;96453.81;10443747;28;1913;-70
2022/03/17 13:19:01;;;;;;;;;;;;;;;21.98;26.29;96471.22;10428179;28;1808;-69
2022/03/17 13:24:11;;;;;;;;;;;;;;;21.92;25.96;96469.63;10440360;28;1910;-69
2022/03/17 13:29:12;;;;;;;;;;;;;;;21.94;26.04;96465.69;10422830;28;2175;-69
2022/03/17 13:34:27;;;;;;;;;;;;;;;21.93;25.88;96473.88;10421156;28;1947;-69
2022/03/17 13:39:28;;;;;;;;;;;;;;;21.92;26.22;96475.72;10445523;28;1893;-69
2022/03/17 13:44:48;;;;;;;;;;;;;;;21.92;26.09;96478.34;10414935;28;1977;-68
2022/03/17 13:50:07;;;;;;;;;;;;;;;21.91;25.91;96479.41;10413797;28;1823;-68
2022/03/17 13:55:12;;;;;;;;;;;;;;;21.92;26.39;96478.34;10445368;28;2099;-69
2022/03/17 14:00:23;;;;;;;;;;;;;;;21.94;26.21;96480.72;10445045;28;1813;-68
2022/03/17 14:05:24;;;;;;;;;;;;;;;21.97;26.62;96480.97;10439660;28;1971;-69
2022/03/17 14:10:25;;;;;;;;;;;;;;;21.98;26.56;96487.06;10410301;28;2056;-69
2022/03/17 14:15:26;;;;;;;;;;;;;;;21.99;27.02;96491.28;10440045;28;1834;-69
2022/03/17 14:20:26;;;;;;;;;;;;;;;22.00;27.06;96485.75;10431857;28;1897;-68
2022/03/17 14:25:26;;;;;;;;;;;;;;;21.99;26.82;96492.06;10442636;28;1910;-68
2022/03/17 14:30:27;;;;;;;;;;;;;;;21.97;26.76;96496.81;10438189;28;1861;-68
2022/03/17 14:35:27;;;;;;;;;;;;;;;21.97;26.54;96494.16;10426795;28;1846;-68
2022/03/17 14:40:27;;;;;;;;;;;;;;;21.96;26.47;96500.53;10411825;28;1831;-68
2022/03/17 14:45:28;;;;;;;;;;;;;;;21.95;26.11;96500.78;10419112;28;1977;-68
2022/03/17 14:50:28;;;;;;;;;;;;;;;21.96;26.72;96511.09;10434507;28;1740;-69
2022/03/17 14:55:29;;;;;;;;;;;;;;;21.96;26.52;96511.09;10415754;28;1801;-68
2022/03/17 15:00:29;;;;;;;;;;;;;;;21.96;26.69;96513.72;10441520;28;1799;-68
2022/03/17 15:05:29;;;;;;;;;;;;;;;21.96;26.42;96518.19;10422333;28;1918;-68
2022/03/17 15:10:30;;;;;;;;;;;;;;;21.96;26.86;96516.38;10421989;28;1950;-68
2022/03/17 15:15:30;;;;;;;;;;;;;;;21.96;26.18;96523.47;10455866;28;1853;-69
2022/03/17 15:20:31;;;;;;;;;;;;;;;21.96;26.50;96526.13;10433266;28;1969;-67
2022/03/17 15:25:31;;;;;;;;;;;;;;;21.97;26.68;96536.41;10457167;28;1971;-70
2022/03/17 15:30:32;;;;;;;;;;;;;;;21.98;26.91;96543.28;10451266;28;1813;-70
2022/03/17 15:35:32;;;;;;;;;;;;;;;21.97;26.50;96544.34;10435237;28;1821;-69
2022/03/17 15:40:33;;;;;;;;;;;;;;;21.95;26.39;96562.28;10454606;28;1853;-68
2022/03/17 15:45:33;;;;;;;;;;;;;;;21.94;26.07;96560.72;10442945;28;1910;-67
2022/03/17 15:50:34;;;;;;;;;;;;;;;21.93;26.48;96569.66;10433267;28;1805;-68
2022/03/17 15:55:34;;;;;;;;;;;;;;;21.94;26.78;96584.47;10443544;28;1793;-68
2022/03/17 16:00:36;;;;;;;;;;;;;;;21.95;26.39;96587.91;10454571;28;1996;-69
2022/03/17 16:05:38;;;;;;;;;;;;;;;21.92;26.01;96583.13;10440612;28;1933;-68
2022/03/17 16:15:58;;;;;;;;;;;;;;;21.94;26.14;96591.59;10456638;28;1872;-68
2022/03/17 16:20:59;;;;;;;;;;;;;;;21.93;26.33;96601.34;10446103;28;1822;-68
2022/03/17 16:26:00;;;;;;;;;;;;;;;21.94;26.22;96608.22;10457366;28;1916;-68
2022/03/17 16:31:17;;;;;;;;;;;;;;;21.92;25.87;96605.06;10443344;28;1792;-69
2022/03/17 16:36:18;;;;;;;;;;;;;;;21.91;25.95;96614.00;10409243;28;2275;-69
2022/03/17 16:41:18;;;;;;;;;;;;;;;21.94;26.58;96607.44;10435058;28;1799;-69
2022/03/17 16:46:19;;;;;;;;;;;;;;;21.96;26.59;96616.69;10431651;28;1926;-67
2022/03/17 16:51:19;;;;;;;;;;;;;;;21.96;26.76;96616.69;10431083;28;1915;-68
2022/03/17 16:56:22;;;;;;;;;;;;;;;21.96;27.11;96621.97;10419950;28;1897;-69
2022/03/17 17:01:24;;;;;;;;;;;;;;;21.99;27.03;96625.94;10442414;28;1891;-67
2022/03/17 17:06:26;;;;;;;;;;;;;;;22.05;26.81;96633.56;10400151;28;1996;-68
2022/03/17 17:11:26;;;;;;;;;;;;;;;22.02;27.16;96639.38;10427464;28;1864;-68
2022/03/17 17:16:27;;;;;;;;;;;;;;;22.01;26.83;96640.44;10448606;28;1967;-68
2022/03/17 17:21:27;;;;;;;;;;;;;;;22.02;26.81;96652.59;10408221;28;2010;-67
2022/03/17 17:31:49;;;;;;;;;;;;;;;22.02;27.08;96662.34;10413211;28;1872;-68
2022/03/17 17:36:50;;;;;;;;;;;;;;;22.04;27.37;96661.03;10433569;28;1831;-68
2022/03/17 17:41:54;;;;;;;;;;;;;;;22.03;27.00;96675.28;10430499;28;2012;-67
2022/03/17 17:46:54;;;;;;;;;;;;;;;22.03;26.90;96670.00;10413863;28;1985;-68
2022/03/17 17:51:55;;;;;;;;;;;;;;;22.03;27.17;96685.06;10421431;28;1887;-66
2022/03/17 17:56:56;;;;;;;;;;;;;;;22.03;26.77;96685.84;10426003;28;1959;-67
2022/03/17 18:01:57;;;;;;;;;;;;;;;22.03;26.68;96691.13;10447565;28;2148;-68
2022/03/17 18:06:58;;;;;;;;;;;;;;;22.07;27.43;96705.38;10429756;28;2250;-68
2022/03/17 18:11:58;;;;;;;;;;;;;;;22.12;27.49;96700.13;10433006;28;2208;-69
2022/03/17 18:16:59;;;;;;;;;;;;;;;22.11;27.96;96703.03;10401037;28;1860;-69
2022/03/17 18:22:00;;;;;;;;;;;;;;;22.12;28.28;96709.91;10438657;28;1919;-68
2022/03/17 18:27:00;;;;;;;;;;;;;;;22.13;28.47;96708.88;10416999;28;1902;-68
2022/03/17 18:32:00;;;;;;;;;;;;;;;22.10;28.19;96714.66;10417380;22;2307;-57
2022/03/17 18:37:01;;;;;;;;;;;;;;;22.07;28.12;96715.94;10400368;28;1866;-57
2022/03/17 18:42:02;;;;;;;;;;;;;;;22.06;28.41;96724.94;10398470;28;1834;-54
2022/03/17 18:47:03;;;;;;;;;;;;;;;22.03;28.13;96733.38;10402341;28;2001;-55
2022/03/17 18:52:04;;;;;;;;;;;;;;;22.04;27.93;96736.81;10395144;28;1831;-58
2022/03/17 18:57:04;;;;;;;;;;;;;;;22.02;28.06;96747.63;10375617;28;1939;-58
2022/03/17 19:02:05;;;;;;;;;;;;;;;21.99;27.79;96750.00;10395973;28;1868;-58
2022/03/17 19:07:05;;;;;;;;;;;;;;;21.99;27.72;96758.69;10369537;28;1966;-58
2022/03/17 19:12:06;;;;;;;;;;;;;;;21.94;27.81;96758.69;10406275;28;1854;-58
2022/03/17 19:17:09;;;;;;;;;;;;;;;21.97;27.57;96763.44;10382387;28;1934;-57
2022/03/17 19:22:11;;;;;;;;;;;;;;;21.99;28.30;96774.53;10384806;28;2212;-58
2022/03/17 19:27:11;;;;;;;;;;;;;;;21.96;28.07;96785.63;10399497;28;2085;-57
2022/03/17 19:32:13;;;;;;;;;;;;;;;22.03;28.46;96788.03;10371959;28;1897;-59
2022/03/17 19:37:13;;;;;;;;;;;;;;;22.02;28.60;96789.88;10399382;28;1515;-58
2022/03/17 19:42:22;;;;;;;;;;;;;;;22.04;28.59;96794.91;10386635;28;1905;-59
2022/03/17 19:47:22;;;;;;;;;;;;;;;22.04;28.47;96802.81;10390813;28;1945;-58
2022/03/17 19:52:23;;;;;;;;;;;;;;;22.01;28.62;96809.41;10411495;28;1887;-57
2022/03/17 19:57:23;;;;;;;;;;;;;;;22.04;28.55;96814.19;10379479;28;1743;-56
2022/03/17 20:02:24;;;;;;;;;;;;;;;22.07;28.24;96818.16;10380804;28;1869;-58
2022/03/17 20:07:24;;;;;;;;;;;;;;;22.04;28.35;96826.56;10393121;28;2020;-58
2022/03/17 20:17:48;;;;;;;;;;;;;;;22.06;28.11;96830.56;10413987;28;1661;-58
2022/03/17 20:22:49;;;;;;;;;;;;;;;22.06;28.20;96835.03;10398685;28;1923;-59
2022/03/17 20:27:49;;;;;;;;;;;;;;;22.03;28.29;96844.25;10403950;28;2092;-59
2022/03/17 20:32:49;;;;;;;;;;;;;;;22.06;28.31;96849.03;10406640;28;1837;-59
2022/03/17 20:37:54;;;;;;;;;;;;;;;22.07;28.32;96852.47;10382355;28;1809;-57
2022/03/17 20:42:55;;;;;;;;;;;;;;;22.08;28.83;96857.50;10399739;28;1964;-58
2022/03/17 20:47:55;;;;;;;;;;;;;;;22.08;29.33;96865.44;10389162;28;1902;-57
2022/03/17 20:52:55;;;;;;;;;;;;;;;22.08;29.14;96868.06;10372575;28;1895;-55
2022/03/17 20:57:56;;;;;;;;;;;;;;;22.11;29.33;96872.84;10396280;28;1872;-57
2022/03/17 21:02:57;;;;;;;;;;;;;;;22.13;28.94;96873.38;10376654;28;1897;-57
2022/03/17 21:07:57;;;;;;;;;;;;;;;22.10;29.13;96876.53;10385671;28;2134;-57
2022/03/17 21:12:57;;;;;;;;;;;;;;;22.15;29.17;96881.84;10407744;28;1894;-58
2022/03/17 21:17:58;;;;;;;;;;;;;;;22.14;29.11;96884.72;10386965;28;1916;-59
2022/03/17 21:22:59;;;;;;;;;;;;;;;22.11;28.98;96886.06;10406572;28;1553;-57
2022/03/17 21:27:59;;;;;;;;;;;;;;;22.14;29.09;96892.63;10381325;28;2060;-59
2022/03/17 21:33:00;;;;;;;;;;;;;;;22.12;28.67;96905.31;10395212;28;1923;-59
2022/03/17 21:38:00;;;;;;;;;;;;;;;22.13;28.51;96897.16;10385299;28;1832;-56
2022/03/17 21:43:01;;;;;;;;;;;;;;;22.12;28.71;96907.94;10399382;28;1933;-58
2022/03/17 21:48:01;;;;;;;;;;;;;;;22.09;28.33;96906.59;10413232;28;1975;-58
2022/03/17 21:53:01;;;;;;;;;;;;;;;22.11;28.44;96909.81;10414761;28;1908;-59
2022/03/17 21:58:04;;;;;;;;;;;;;;;22.14;28.41;96911.13;10408983;28;1864;-57
2022/03/17 22:03:04;;;;;;;;;;;;;;;22.09;28.52;96919.03;10408724;28;1584;-55
2022/03/17 22:08:05;;;;;;;;;;;;;;;22.10;28.39;96917.97;10388709;28;1924;-58
2022/03/17 22:13:05;;;;;;;;;;;;;;;22.11;28.54;96915.09;10380011;28;2129;-57
2022/03/17 22:18:05;;;;;;;;;;;;;;;22.16;29.10;96917.75;10376052;28;1892;-57
2022/03/17 22:23:07;;;;;;;;;;;;;;;22.10;29.42;96917.97;10381804;28;1947;-58
2022/03/17 22:28:07;;;;;;;;;;;;;;;22.12;29.25;96913.22;10373002;28;1981;-58
2022/03/17 22:33:07;;;;;;;;;;;;;;;22.08;29.23;96920.88;10375381;28;2007;-56
2022/03/17 22:38:10;;;;;;;;;;;;;;;22.09;29.30;96924.31;10386230;28;1850;-57
2022/03/17 22:43:13;;;;;;;;;;;;;;;22.08;29.29;96928.78;10386105;28;1851;-57
2022/03/17 22:48:13;;;;;;;;;;;;;;;22.06;29.22;96932.72;10369334;28;1918;-59
2022/03/17 22:53:13;;;;;;;;;;;;;;;22.02;29.46;96939.56;10377287;28;1999;-56
2022/03/17 22:58:15;;;;;;;;;;;;;;;22.03;29.42;96936.66;10382256;28;1688;-56
2022/03/17 23:03:15;;;;;;;;;;;;;;;22.04;29.63;96943.56;10391639;28;1887;-58
2022/03/17 23:08:17;;;;;;;;;;;;;;;22.09;29.71;96937.53;10376335;28;1981;-58
2022/03/17 23:13:17;;;;;;;;;;;;;;;22.02;29.75;96947.50;10390761;28;1832;-58
2022/03/17 23:18:17;;;;;;;;;;;;;;;22.01;29.55;96945.91;10391891;23;2273;-44
2022/03/17 23:23:19;;;;;;;;;;;;;;;21.95;29.35;96955.63;10373146;28;1828;-45
2022/03/17 23:28:20;;;;;;;;;;;;;;;21.94;29.68;96946.13;10356189;28;1966;-43
2022/03/17 23:33:20;;;;;;;;;;;;;;;21.95;29.47;96950.34;10372807;28;1887;-40
2022/03/17 23:38:20;;;;;;;;;;;;;;;21.95;29.55;96953.00;10369021;28;1994;-45
2022/03/17 23:43:22;;;;;;;;;;;;;;;21.93;29.75;96955.09;10368781;28;1896;-43
2022/03/17 23:48:23;;;;;;;;;;;;;;;21.85;29.23;96952.91;10337017;28;1909;-42
2022/03/17 23:53:23;;;;;;;;;;;;;;;21.86;29.16;96957.16;10372597;28;1928;-44
2022/03/17 23:58:26;;;;;;;;;;;;;;;21.83;29.29;96963.72;10342690;28;1868;-42
